.
WxDataArchive / Data Records for 2016-06-10
2016-06-09 June 2016 2016-06-11

Data Records for Friday, 10 June 2016

Time	Temp	Chill	HIndex	Humid	Dewpt	 Wind 	HiWind	WindDir	Rain 	Barom
-----	----	-----	------	-----	-----	------	------	-------	-----	-----
00:00	68.9	68.9	68.9	62	55.3	0	0	---	0.00	29.959 
00:05	68.9	68.9	68.9	62	55.3	0	0	---	0.00	29.959 
00:10	68.8	68.8	68.8	62	55.2	0	0	---	0.00	29.959 
00:15	68.8	68.8	68.8	62	55.2	0	0	---	0.00	29.957 
00:20	68.6	68.6	68.6	62	55.0	0	0	---	0.00	29.957 
00:25	68.4	68.4	68.4	62	54.9	0	0	---	0.00	29.957 
00:30	68.3	68.3	68.3	62	54.8	0	0	---	0.00	29.960 
00:35	68.3	68.3	68.3	62	54.8	0	0	---	0.00	29.960 
00:40	68.3	68.3	68.3	61	54.3	0	0	---	0.00	29.960 
00:45	68.3	68.3	68.3	62	54.8	0	0	---	0.00	29.961 
00:50	68.1	68.1	68.1	63	55.0	0	0	---	0.00	29.961 
00:55	68.1	68.1	68.1	63	55.0	0	0	---	0.00	29.961 
01:00	67.9	67.9	67.9	63	54.8	0	0	---	0.00	29.958 
01:05	67.8	67.8	67.8	62	54.3	0	0	---	0.00	29.958 
01:10	67.8	67.8	67.8	63	54.7	0	0	---	0.00	29.958 
01:15	67.8	67.8	67.8	63	54.7	0	0	---	0.00	29.954 
01:20	67.6	67.6	67.6	63	54.5	0	0	---	0.00	29.954 
01:25	67.6	67.6	67.6	63	54.5	0	0	---	0.00	29.954 
01:30	67.6	67.6	67.6	63	54.5	0	0	---	0.00	29.952 
01:35	67.6	67.6	67.6	65	55.4	0	0	---	0.00	29.952 
01:40	67.6	67.6	67.6	65	55.4	0	0	---	0.00	29.952 
01:45	67.4	67.4	67.4	65	55.2	0	0	---	0.00	29.951 
01:50	67.3	67.3	67.3	62	53.8	0	0	---	0.00	29.951 
01:55	67.3	67.3	67.3	62	53.8	0	0	---	0.00	29.951 
02:00	67.1	67.1	67.1	62	53.6	0	0	---	0.00	29.954 
02:05	67.1	67.1	67.1	62	53.6	0	0	---	0.00	29.954 
02:10	67.3	67.3	67.3	63	54.3	0	0	---	0.00	29.954 
02:15	67.3	67.3	67.3	64	54.7	0	0	---	0.00	29.952 
02:20	67.3	67.3	67.3	63	54.3	0	0	---	0.00	29.952 
02:25	67.1	67.1	67.1	63	54.1	0	0	---	0.00	29.952 
02:30	67.1	67.1	67.1	63	54.1	0	0	---	0.00	29.951 
02:35	67.1	67.1	67.1	63	54.1	0	0	---	0.00	29.951 
02:40	66.9	66.9	66.9	64	54.3	0	0	---	0.00	29.951 
02:45	66.9	66.9	66.9	64	54.3	0	0	---	0.00	29.952 
02:50	66.9	66.9	66.9	65	54.7	0	0	---	0.00	29.952 
02:55	66.9	66.9	66.9	66	55.2	0	0	---	0.00	29.952 
03:00	66.9	66.9	66.9	66	55.2	0	0	---	0.00	29.950 
03:05	66.9	66.9	66.9	66	55.2	0	0	---	0.00	29.950 
03:10	66.9	66.9	66.9	65	54.7	0	0	---	0.00	29.950 
03:15	67.1	67.1	67.1	64	54.5	0	0	---	0.00	29.954 
03:20	67.1	67.1	67.1	64	54.5	0	0	---	0.00	29.954 
03:25	67.1	67.1	67.1	63	54.1	0	0	---	0.00	29.954 
03:30	67.1	67.1	67.1	63	54.1	0	0	---	0.00	29.947 
03:35	67.3	67.3	67.3	63	54.3	0	1	45	0.00	29.947 
03:40	67.3	67.3	67.3	63	54.3	0	0	---	0.00	29.947 
03:45	67.1	67.1	67.1	64	54.5	0	0	---	0.00	29.948 
03:50	67.1	67.1	67.1	65	54.9	0	0	---	0.00	29.948 
03:55	67.1	67.1	67.1	65	54.9	0	1	45	0.00	29.948 
04:00	67.1	67.1	67.1	65	54.9	0	1	45	0.00	29.945 
04:05	66.9	66.9	66.9	65	54.7	0	0	---	0.00	29.945 
04:10	66.9	66.9	66.9	65	54.7	0	0	---	0.00	29.945 
04:15	66.8	66.8	66.8	65	54.6	0	0	---	0.00	29.944 
04:20	66.6	66.6	66.6	65	54.5	0	0	---	0.00	29.944 
04:25	66.3	66.3	66.3	66	54.6	0	0	---	0.00	29.944 
04:30	66.1	66.1	66.1	67	54.8	0	0	---	0.00	29.945 
04:35	65.8	65.8	65.8	69	55.3	0	0	---	0.00	29.945 
04:40	65.8	65.8	65.8	69	55.3	0	0	---	0.00	29.945 
04:45	65.6	65.6	65.6	70	55.5	0	0	---	0.00	29.954 
04:50	65.6	65.6	65.6	70	55.5	0	0	---	0.00	29.954 
04:55	65.6	65.6	65.6	72	56.3	0	0	---	0.00	29.954 
05:00	65.6	65.6	65.6	72	56.3	0	0	---	0.00	29.956 
05:05	65.5	65.5	65.5	73	56.6	0	1	45	0.00	29.956 
05:10	65.5	65.5	65.5	73	56.6	0	0	---	0.00	29.956 
05:15	65.2	65.2	65.2	73	56.3	0	1	45	0.00	29.971 
05:20	65.0	65.0	65.0	73	56.1	0	0	---	0.00	29.971 
05:25	65.0	65.0	65.0	73	56.1	0	0	---	0.00	29.971 
05:30	64.8	64.8	64.8	73	55.9	0	0	---	0.00	29.972 
05:35	64.8	64.8	64.8	74	56.3	0	0	---	0.00	29.972 
05:40	64.8	64.8	64.8	73	55.9	0	0	---	0.00	29.972 
05:45	64.7	64.7	64.7	73	55.8	0	0	---	0.00	29.971 
05:50	64.7	64.7	64.7	71	55.1	0	0	---	0.00	29.971 
05:55	64.7	64.7	64.7	72	55.5	0	0	---	0.00	29.971 
06:00	64.8	64.8	64.8	72	55.6	0	0	---	0.00	29.966 
06:05	64.8	64.8	64.8	71	55.2	0	0	---	0.00	29.966 
06:10	65.2	65.2	65.2	71	55.6	0	1	45	0.00	29.966 
06:15	65.5	65.5	65.5	71	55.8	0	0	---	0.00	29.968 
06:20	65.8	65.8	65.8	71	56.1	0	0	---	0.00	29.968 
06:25	66.0	66.0	66.0	71	56.3	0	0	---	0.00	29.968 
06:30	66.3	66.3	66.3	72	57.0	0	1	45	0.00	29.970 
06:35	66.3	66.3	66.3	72	57.0	0	0	---	0.00	29.970 
06:40	66.4	66.4	66.4	72	57.1	0	1	45	0.00	29.970 
06:45	66.4	66.4	66.4	73	57.5	0	0	---	0.00	29.967 
06:50	66.4	66.4	66.4	73	57.5	0	0	---	0.00	29.967 
06:55	66.4	66.4	66.4	74	57.9	0	0	---	0.00	29.967 
07:00	66.6	66.6	66.6	74	58.0	0	1	45	0.00	29.955 
07:05	66.8	66.8	66.8	75	58.6	0	1	45	0.00	29.955 
07:10	66.9	66.9	66.9	75	58.7	0	2	45	0.00	29.955 
07:15	67.1	67.1	67.1	76	59.3	0	1	45	0.00	29.964 
07:20	67.3	67.3	67.3	77	59.8	0	1	45	0.00	29.964 
07:25	67.3	67.3	67.3	77	59.8	0	1	45	0.00	29.964 
07:30	67.3	67.3	67.3	78	60.2	0	1	45	0.00	29.968 
07:35	67.3	67.3	67.3	79	60.6	0	0	---	0.00	29.968 
07:40	67.4	67.4	67.4	79	60.7	0	0	---	0.00	29.968 
07:45	67.4	67.4	67.4	80	61.0	0	0	---	0.00	29.963 
07:50	67.6	67.6	67.6	81	61.6	0	1	45	0.00	29.963 
07:55	67.8	67.8	67.8	81	61.7	0	0	---	0.00	29.963 
08:00	67.9	67.9	67.9	81	61.8	0	2	45	0.00	29.965 
08:05	68.3	68.3	68.3	81	62.2	0	0	---	0.00	29.965 
08:10	68.6	68.6	68.6	81	62.5	0	0	---	0.00	29.965 
08:15	68.8	68.8	68.8	81	62.7	0	1	202	0.00	29.968 
08:20	68.9	68.9	68.9	81	62.8	0	1	202	0.00	29.968 
08:25	69.1	69.1	69.1	81	63.0	0	1	202	0.00	29.968 
08:30	69.4	69.4	69.4	81	63.3	0	1	202	0.00	29.971 
08:35	69.8	69.8	69.8	80	63.3	0	1	202	0.00	29.971 
08:40	69.8	69.8	69.8	80	63.3	0	1	202	0.00	29.971 
08:45	69.8	69.8	69.8	80	63.3	0	1	202	0.00	29.985 
08:50	69.6	69.6	69.6	81	63.5	0	0	---	0.00	29.985 
08:55	69.4	69.4	69.4	82	63.7	0	1	202	0.00	29.985 
09:00	69.6	69.6	69.6	82	63.9	0	0	---	0.00	29.989 
09:05	69.6	69.6	69.6	82	63.9	0	0	---	0.00	29.989 
09:10	69.6	69.6	69.6	82	63.9	0	1	202	0.00	29.989 
09:15	69.6	69.6	69.6	82	63.9	0	1	202	0.00	29.998 
09:20	69.6	69.6	69.6	82	63.9	0	1	202	0.00	29.998 
09:25	69.8	69.8	69.8	82	64.0	0	1	202	0.00	29.998 
09:30	70.1	70.1	70.1	82	64.3	0	1	202	0.00	30.001 
09:35	70.3	70.3	70.3	82	64.5	0	1	202	0.00	30.001 
09:40	70.6	70.6	70.6	82	64.8	0	2	202	0.00	30.001 
09:45	70.9	70.9	70.9	82	65.1	0	1	202	0.00	30.006 
09:50	70.9	70.9	70.9	81	64.8	0	0	---	0.00	30.006 
09:55	71.1	71.1	71.1	81	65.0	0	2	270	0.00	30.006 
10:00	71.6	71.6	71.6	81	65.4	0	1	270	0.00	30.010 
10:05	72.5	72.5	72.5	79	65.6	0	3	270	0.00	30.010 
10:10	73.5	73.5	73.5	77	65.8	0	3	292	0.00	30.010 
10:15	73.9	73.9	73.9	75	65.5	0	2	292	0.00	30.002 
10:20	74.4	74.4	74.4	75	65.9	0	2	292	0.00	30.002 
10:25	74.9	74.9	74.9	73	65.6	0	2	292	0.00	30.002 
10:30	74.9	74.9	74.9	73	65.6	0	1	292	0.00	30.006 
10:35	75.1	75.1	76.4	74	66.2	0	2	292	0.00	30.006 
10:40	75.3	75.3	76.8	72	65.6	0	2	292	0.00	30.006 
10:45	75.3	75.3	76.7	73	66.0	0	3	292	0.00	30.006 
10:50	75.3	75.3	76.8	72	65.6	0	1	292	0.00	30.006 
10:55	75.4	75.4	76.8	73	66.1	0	1	292	0.00	30.006 
11:00	75.3	75.3	76.9	71	65.2	0	2	292	0.00	30.011 
11:05	75.3	75.3	76.9	71	65.2	0	2	292	0.00	30.011 
11:10	75.4	75.4	77.0	71	65.3	0	2	292	0.00	30.011 
11:15	75.8	75.8	77.4	71	65.7	0	2	292	0.00	30.014 
11:20	76.0	76.0	77.7	70	65.5	0	1	292	0.00	30.014 
11:25	76.0	76.0	77.6	71	65.9	0	1	292	0.00	30.014 
11:30	76.0	76.0	77.7	70	65.5	0	1	292	0.00	30.015 
11:35	75.6	75.6	77.2	70	65.1	0	3	292	0.00	30.015 
11:40	75.8	75.8	77.4	71	65.7	0	0	---	0.00	30.015 
11:45	75.8	75.8	77.4	71	65.7	0	2	292	0.00	30.014 
11:50	75.8	75.8	77.4	70	65.3	0	3	292	0.00	30.014 
11:55	75.8	75.8	77.4	70	65.3	0	2	292	0.00	30.014 
12:00	76.1	76.1	77.8	70	65.6	0	3	292	0.00	30.015 
12:05	76.5	76.5	78.2	69	65.6	0	2	292	0.00	30.015 
12:10	76.5	76.5	78.2	69	65.6	0	3	315	0.00	30.015 
12:15	76.7	76.7	78.4	69	65.7	1	4	315	0.00	30.012 
12:20	77.0	77.0	78.8	70	66.4	0	4	270	0.00	30.012 
12:25	77.0	77.0	78.8	69	66.0	1	3	292	0.00	30.012 
12:30	77.0	77.0	78.8	67	65.2	0	3	292	0.00	30.012 
12:35	76.8	76.8	78.6	68	65.4	1	4	292	0.00	30.012 
12:40	76.5	76.5	78.2	69	65.6	1	5	292	0.00	30.012 
12:45	76.3	76.3	78.0	70	65.8	0	3	292	0.00	30.010 
12:50	76.3	76.3	77.9	71	66.2	0	2	292	0.00	30.010 
12:55	76.3	76.3	78.0	70	65.8	0	3	292	0.00	30.010 
13:00	75.8	75.8	77.4	71	65.7	1	3	292	0.00	30.000 
13:05	75.6	75.6	77.2	71	65.5	0	2	292	0.00	30.000 
13:10	75.3	75.3	76.8	72	65.6	1	3	292	0.00	30.000 
13:15	75.4	75.4	76.9	72	65.7	0	2	292	0.00	29.999 
13:20	75.8	75.8	77.3	72	66.1	0	1	292	0.00	29.999 
13:25	76.5	76.5	78.1	73	67.2	0	2	292	0.00	29.999 
13:30	77.2	77.2	79.0	69	66.2	1	4	292	0.00	29.993 
13:35	77.9	77.9	79.9	72	68.1	0	2	292	0.00	29.993 
13:40	78.5	78.5	80.5	67	66.6	0	2	292	0.00	29.993 
13:45	78.8	78.8	81.0	68	67.3	0	2	292	0.00	29.985 
13:50	79.0	79.0	81.1	66	66.6	0	2	292	0.00	29.985 
13:55	79.0	79.0	81.1	66	66.6	0	2	315	0.00	29.985 
14:00	78.8	78.8	80.9	66	66.5	1	3	315	0.00	29.979 
14:05	78.6	78.6	80.6	66	66.3	0	3	315	0.00	29.979 
14:10	78.8	78.8	81.0	68	67.3	0	3	315	0.00	29.979 
14:15	79.4	79.4	81.8	68	67.9	0	2	68	0.00	29.978 
14:20	79.6	79.6	81.8	65	66.8	0	1	68	0.00	29.978 
14:25	79.8	79.8	82.0	64	66.5	1	4	68	0.00	29.978 
14:30	79.8	79.8	82.3	67	67.8	0	2	315	0.00	29.973 
14:35	79.6	79.6	81.9	66	67.2	0	2	22	0.00	29.973 
14:40	79.4	79.4	81.6	66	67.0	0	3	68	0.00	29.973 
14:45	79.2	79.2	81.5	67	67.3	0	2	68	0.00	29.967 
14:50	79.4	79.4	81.7	67	67.5	0	3	315	0.00	29.967 
14:55	79.9	79.9	82.3	66	67.5	1	5	292	0.00	29.967 
15:00	80.3	80.3	83.2	68	68.8	1	3	292	0.00	29.965 
15:05	81.1	81.1	84.3	67	69.1	1	3	292	0.00	29.965 
15:10	81.4	81.4	84.4	65	68.5	0	2	292	0.00	29.965 
15:15	81.8	81.8	84.9	64	68.4	1	4	292	0.00	29.960 
15:20	82.0	82.0	85.0	63	68.1	1	5	292	0.00	29.960 
15:25	82.6	82.6	85.7	62	68.2	1	5	292	0.00	29.960 
15:30	82.8	82.8	86.1	62	68.4	0	2	292	0.00	29.956 
15:35	83.2	83.2	86.7	62	68.8	0	2	292	0.00	29.956 
15:40	83.2	83.2	86.7	62	68.8	0	2	22	0.00	29.956 
15:45	83.2	83.2	86.7	62	68.8	0	2	22	0.00	29.950 
15:50	83.6	83.6	87.6	63	69.6	0	2	45	0.00	29.950 
15:55	84.0	84.0	87.8	61	69.1	0	2	292	0.00	29.950 
16:00	84.5	84.5	88.4	60	69.1	1	3	90	0.00	29.943 
16:05	84.7	84.7	88.1	58	68.3	1	3	315	0.00	29.943 
16:10	84.7	84.7	88.7	60	69.2	1	3	315	0.00	29.943 
16:15	84.9	84.9	89.1	60	69.4	0	2	68	0.00	29.944 
16:20	85.3	85.3	89.8	60	69.8	0	2	45	0.00	29.944 
16:25	85.3	85.3	88.8	57	68.3	0	3	22	0.00	29.944 
16:30	85.5	85.5	89.5	58	69.0	0	1	0	0.00	29.936 
16:35	85.7	85.7	90.2	59	69.7	0	2	22	0.00	29.936 
16:40	86.3	86.3	90.9	58	69.7	0	1	22	0.00	29.936 
16:45	86.5	86.5	91.0	57	69.4	0	1	22	0.00	29.932 
16:50	86.7	86.7	90.6	55	68.6	0	2	22	0.00	29.932 
16:55	87.0	87.0	91.5	56	69.4	0	3	292	0.00	29.932 
17:00	87.4	87.4	92.2	56	69.7	0	2	292	0.00	29.930 
17:05	87.4	87.4	91.9	55	69.2	0	1	292	0.00	29.930 
17:10	87.2	87.2	91.9	56	69.6	0	2	292	0.00	29.930 
17:15	87.2	87.2	92.3	57	70.1	0	1	292	0.00	29.928 
17:20	87.2	87.2	91.9	56	69.6	0	1	292	0.00	29.928 
17:25	87.2	87.2	91.5	55	69.0	0	5	292	0.00	29.928 
17:30	87.0	87.0	90.1	52	67.2	1	4	315	0.00	29.922 
17:35	87.0	87.0	90.4	53	67.8	1	4	315	0.00	29.922 
17:40	86.5	86.5	89.3	52	66.7	1	3	315	0.00	29.922 
17:45	86.5	86.5	90.6	56	68.9	0	2	315	0.00	29.914 
17:50	86.3	86.3	90.2	56	68.7	0	3	315	0.00	29.914 
17:55	86.1	86.1	89.6	55	68.0	0	3	315	0.00	29.914 
18:00	86.1	86.1	89.6	55	68.0	0	2	315	0.00	29.914 
18:05	86.1	86.1	89.9	56	68.5	0	1	315	0.00	29.914 
18:10	85.9	85.9	89.2	55	67.8	0	2	315	0.00	29.914 
18:15	85.7	85.7	88.9	55	67.6	0	2	315	0.00	29.912 
18:20	85.5	85.5	88.9	56	68.0	0	1	315	0.00	29.912 
18:25	85.5	85.5	88.9	56	68.0	0	1	315	0.00	29.912 
18:30	85.3	85.3	89.2	58	68.8	0	3	315	0.00	29.902 
18:35	85.1	85.1	88.5	57	68.1	0	3	315	0.00	29.902 
18:40	84.9	84.9	88.5	58	68.4	0	2	315	0.00	29.902 
18:45	84.7	84.7	88.4	59	68.8	0	1	315	0.00	29.898 
18:50	84.7	84.7	88.7	60	69.2	0	2	315	0.00	29.898 
18:55	84.7	84.7	88.7	60	69.2	0	1	315	0.00	29.898 
19:00	84.7	84.7	89.0	61	69.7	0	2	315	0.00	29.898 
19:05	84.7	84.7	88.4	59	68.8	0	2	315	0.00	29.898 
19:10	84.5	84.5	88.1	59	68.6	0	3	315	0.00	29.898 
19:15	84.5	84.5	88.4	60	69.1	0	1	315	0.00	29.895 
19:20	84.5	84.5	88.7	61	69.5	0	2	315	0.00	29.895 
19:25	84.3	84.3	88.0	60	68.9	0	1	315	0.00	29.895 
19:30	84.1	84.1	87.7	60	68.7	0	3	315	0.00	29.884 
19:35	84.1	84.1	87.7	60	68.7	0	3	22	0.00	29.884 
19:40	84.0	84.0	87.8	61	69.1	0	1	90	0.00	29.884 
19:45	84.0	84.0	87.8	61	69.1	0	2	90	0.00	29.883 
19:50	83.8	83.8	87.2	60	68.4	0	3	90	0.00	29.883 
19:55	83.6	83.6	87.1	61	68.7	0	1	90	0.00	29.883 
20:00	83.4	83.4	86.8	61	68.5	0	1	90	0.00	29.883 
20:05	83.2	83.2	86.7	62	68.8	0	3	90	0.00	29.883 
20:10	83.2	83.2	86.7	62	68.8	0	1	90	0.00	29.883 
20:15	83.0	83.0	86.1	61	68.1	0	2	90	0.00	29.879 
20:20	82.8	82.8	86.1	62	68.4	0	2	90	0.00	29.879 
20:25	82.6	82.6	85.7	62	68.2	0	2	90	0.00	29.879 
20:30	82.4	82.4	85.4	62	68.0	0	3	90	0.00	29.872 
20:35	82.2	82.2	85.3	63	68.3	0	1	90	0.00	29.872 
20:40	82.0	82.0	85.0	63	68.1	0	1	90	0.00	29.872 
20:45	81.8	81.8	84.9	64	68.4	0	2	90	0.00	29.873 
20:50	81.6	81.6	84.6	64	68.2	0	2	90	0.00	29.873 
20:55	81.4	81.4	84.3	64	68.0	0	1	90	0.00	29.873 
21:00	81.2	81.2	84.0	64	67.8	0	1	90	0.00	29.879 
21:05	81.1	81.1	84.0	65	68.2	0	1	90	0.00	29.879 
21:10	80.9	80.9	83.7	65	68.0	0	0	---	0.00	29.879 
21:15	80.5	80.5	83.1	65	67.6	0	1	90	0.00	29.882 
21:20	80.3	80.3	82.9	66	67.9	0	0	---	0.00	29.882 
21:25	80.1	80.1	82.7	67	68.1	0	0	---	0.00	29.882 
21:30	79.9	79.9	82.5	67	67.9	0	1	90	0.00	29.891 
21:35	79.8	79.8	82.4	68	68.3	0	0	---	0.00	29.891 
21:40	79.6	79.6	82.1	68	68.1	0	0	---	0.00	29.891 
21:45	79.4	79.4	81.9	69	68.3	0	0	---	0.00	29.893 
21:50	79.2	79.2	81.6	69	68.1	0	0	---	0.00	29.893 
21:55	79.0	79.0	81.4	70	68.4	0	0	---	0.00	29.893 
22:00	78.6	78.6	80.8	70	68.0	0	0	---	0.00	29.892 
22:05	78.5	78.5	80.8	71	68.3	0	0	---	0.00	29.892 
22:10	78.5	78.5	80.8	72	68.7	0	1	90	0.00	29.892 
22:15	78.3	78.3	80.5	72	68.5	0	0	---	0.00	29.884 
22:20	78.1	78.1	80.2	72	68.3	0	0	---	0.00	29.884 
22:25	77.9	77.9	80.0	73	68.5	0	0	---	0.00	29.884 
22:30	77.7	77.7	79.7	73	68.3	0	1	90	0.00	29.886 
22:35	77.6	77.6	79.6	74	68.6	0	1	90	0.00	29.886 
22:40	77.6	77.6	79.6	74	68.6	0	0	---	0.00	29.886 
22:45	77.4	77.4	79.3	74	68.4	0	1	90	0.00	29.882 
22:50	77.6	77.6	79.6	74	68.6	0	1	90	0.00	29.882 
22:55	77.6	77.6	79.5	73	68.2	0	1	90	0.00	29.882 
23:00	77.7	77.7	79.7	73	68.3	0	1	90	0.00	29.885 
23:05	77.7	77.7	79.7	73	68.3	0	1	90	0.00	29.885 
23:10	77.9	77.9	79.9	72	68.1	0	3	90	0.00	29.885 
23:15	77.9	77.9	79.9	72	68.1	0	1	90	0.00	29.880 
23:20	78.1	78.1	80.2	72	68.3	0	1	90	0.00	29.880 
23:25	77.9	77.9	79.9	71	67.7	0	1	90	0.00	29.880 
23:30	78.1	78.1	80.2	71	67.9	0	1	90	0.00	29.881 
23:35	78.1	78.1	80.2	70	67.5	0	1	90	0.00	29.881 
23:40	78.1	78.1	80.2	70	67.5	0	1	90	0.00	29.881 
23:45	78.1	78.1	80.1	69	67.1	0	1	90	0.00	29.895 
23:50	78.1	78.1	80.1	69	67.1	0	1	90	0.00	29.895 
23:55	78.1	78.1	80.1	68	66.7	0	0	---	0.00	29.895 

CoCoRaHS
IN-AL-39
A2 Web Hosting
Creative Commons License
GoDaddy
search engine by freefind advanced

loaded 2018-11-13 21:16:23 • last modified 2010-11-18 10:43:29
Privacy PolicyDisclaimer
• wx.awcolley.com is powered by PmWiki v.2002016 •
• all content (unless otherwise noted) © 2018 A W Colley